createdAt,value
2022-09-14T00:01:34.166Z,4.13
2022-09-14T00:04:12.444Z,5.90
2022-09-14T00:06:40.080Z,3.73
2022-09-14T00:09:07.974Z,3.83
2022-09-14T00:11:36.660Z,5.37
2022-09-14T00:14:05.306Z,5.10
2022-09-14T00:16:35.998Z,4.83
2022-09-14T00:19:06.365Z,6.03
2022-09-14T00:21:35.991Z,5.03
2022-09-14T00:24:04.074Z,4.23
2022-09-14T00:26:31.343Z,3.80
2022-09-14T00:29:04.204Z,5.23
2022-09-14T00:31:36.548Z,3.97
2022-09-14T00:34:05.564Z,5.83
2022-09-14T00:36:33.911Z,4.60
2022-09-14T00:39:01.111Z,8.13
2022-09-14T00:41:33.026Z,6.27
2022-09-14T00:44:10.838Z,5.90
2022-09-14T00:46:43.601Z,6.37
2022-09-14T00:49:27.548Z,8.17
2022-09-14T00:52:15.631Z,6.77
2022-09-14T00:54:52.196Z,6.63
2022-09-14T00:57:21.165Z,6.87
2022-09-14T00:59:51.553Z,5.93
2022-09-14T01:02:21.432Z,5.57
2022-09-14T01:04:51.506Z,5.73
2022-09-14T01:07:39.724Z,6.33
2022-09-14T01:10:26.635Z,6.03
2022-09-14T01:13:19.771Z,6.20
2022-09-14T01:15:59.003Z,8.60
2022-09-14T01:18:36.535Z,5.37
2022-09-14T01:21:21.437Z,7.63
2022-09-14T01:24:12.133Z,6.20
2022-09-14T01:27:00.074Z,9.37
2022-09-14T01:29:45.595Z,12.53
2022-09-14T01:32:18.666Z,7.77
2022-09-14T01:34:57.696Z,8.97
2022-09-14T01:37:35.976Z,7.07
2022-09-14T01:40:18.135Z,8.90
2022-09-14T01:42:49.776Z,8.87
2022-09-14T01:45:19.305Z,9.30
2022-09-14T01:47:52.148Z,9.17
2022-09-14T01:50:28.578Z,9.33
2022-09-14T01:53:00.488Z,10.40
2022-09-14T01:55:35.821Z,10.23
2022-09-14T01:58:12.424Z,11.87
2022-09-14T02:00:46.311Z,13.90
2022-09-14T02:03:17.816Z,16.10
2022-09-14T02:05:56.949Z,13.47
2022-09-14T02:08:28.133Z,12.77
2022-09-14T02:10:55.721Z,15.43
2022-09-14T02:13:22.931Z,15.80
2022-09-14T02:15:53.161Z,19.03
2022-09-14T02:18:20.933Z,18.93
2022-09-14T02:21:09.405Z,20.00
2022-09-14T02:23:36.723Z,17.50
2022-09-14T02:26:04.365Z,19.37
2022-09-14T02:28:31.498Z,20.77
2022-09-14T02:31:21.170Z,20.50
2022-09-14T02:34:03.185Z,19.17
2022-09-14T02:36:55.056Z,22.53
2022-09-14T02:39:47.053Z,20.47
2022-09-14T02:42:46.663Z,21.80
2022-09-14T02:45:45.053Z,21.83
2022-09-14T02:48:49.739Z,24.90
2022-09-14T02:51:32.395Z,23.53
2022-09-14T02:54:24.563Z,29.57
2022-09-14T02:56:51.724Z,30.00
2022-09-14T02:59:18.964Z,29.87
2022-09-14T03:01:46.203Z,29.27
2022-09-14T03:04:13.354Z,28.73
2022-09-14T03:06:40.531Z,30.87
2022-09-14T03:09:07.493Z,31.43
2022-09-14T03:11:34.667Z,33.10
2022-09-14T03:14:01.883Z,33.37
2022-09-14T03:16:28.957Z,31.80
2022-09-14T03:18:56.028Z,38.00
2022-09-14T03:21:23.815Z,37.17
2022-09-14T03:23:52.626Z,33.57
2022-09-14T03:26:21.874Z,36.93
2022-09-14T03:28:57.602Z,31.53
2022-09-14T03:31:25.690Z,32.47
2022-09-14T03:33:57.892Z,37.47
2022-09-14T03:36:28.136Z,34.53
2022-09-14T03:38:57.471Z,36.47
2022-09-14T03:41:25.529Z,34.73
2022-09-14T03:43:52.844Z,34.03
2022-09-14T03:46:22.262Z,35.13
2022-09-14T03:48:49.758Z,38.50
2022-09-14T03:51:17.956Z,37.73
2022-09-14T03:53:45.591Z,38.13
2022-09-14T03:56:19.406Z,37.63
2022-09-14T03:58:48.152Z,35.40
2022-09-14T04:01:18.398Z,34.90
2022-09-14T04:03:45.876Z,34.67
2022-09-14T04:06:13.359Z,34.60
2022-09-14T04:08:41.953Z,34.63
2022-09-14T04:11:18.008Z,34.67
2022-09-14T04:13:46.214Z,35.93
2022-09-14T04:16:13.960Z,40.60
2022-09-14T04:18:40.971Z,36.50
2022-09-14T04:21:16.655Z,36.43
2022-09-14T04:24:12.662Z,37.10
2022-09-14T04:26:32.306Z,35.13
2022-09-14T04:29:00.097Z,38.83
2022-09-14T04:31:27.288Z,36.33
2022-09-14T04:33:57.162Z,34.27
2022-09-14T04:36:28.466Z,40.07
2022-09-14T04:38:59.247Z,36.90
2022-09-14T04:41:27.569Z,29.50
2022-09-14T04:43:58.684Z,31.87
2022-09-14T04:46:36.949Z,30.87
2022-09-14T04:49:04.105Z,34.13
2022-09-14T04:51:33.185Z,32.00
2022-09-14T04:54:02.702Z,29.80
2022-09-14T04:56:32.634Z,32.23
2022-09-14T04:59:02.019Z,28.77
2022-09-14T05:01:32.581Z,29.53
2022-09-14T05:03:59.983Z,27.67
2022-09-14T05:06:29.625Z,27.80
2022-09-14T05:08:57.409Z,25.40
2022-09-14T05:11:27.929Z,24.23
2022-09-14T05:13:57.206Z,25.53
2022-09-14T05:16:26.080Z,27.63
2022-09-14T05:19:01.769Z,22.70
2022-09-14T05:21:31.313Z,24.13
2022-09-14T05:24:00.661Z,22.67
2022-09-14T05:26:29.268Z,25.23
2022-09-14T05:28:58.768Z,29.30
2022-09-14T05:31:27.028Z,26.27
2022-09-14T05:33:54.638Z,27.67
2022-09-14T05:36:21.883Z,25.10
2022-09-14T05:38:48.909Z,24.83
2022-09-14T05:41:17.065Z,23.87
2022-09-14T05:44:02.967Z,23.40
2022-09-14T05:46:30.303Z,26.90
2022-09-14T05:48:57.365Z,25.77
2022-09-14T05:51:26.145Z,25.97
2022-09-14T05:53:55.762Z,23.87
2022-09-14T05:56:25.043Z,24.00
2022-09-14T05:58:52.042Z,23.13
2022-09-14T06:01:21.987Z,21.30
2022-09-14T06:03:49.830Z,23.57
2022-09-14T06:06:18.825Z,23.00
2022-09-14T06:08:50.146Z,28.47
2022-09-14T06:11:19.389Z,26.63
2022-09-14T06:13:50.016Z,24.03
2022-09-14T06:16:19.177Z,24.67
2022-09-14T06:18:47.248Z,26.40
2022-09-14T06:21:16.978Z,29.37
2022-09-14T06:23:44.730Z,32.47
2022-09-14T06:26:12.872Z,28.03
2022-09-14T06:28:40.231Z,30.10
2022-09-14T06:31:09.997Z,33.37
2022-09-14T06:42:10.582Z,30.00
2022-09-14T06:44:37.727Z,31.73
2022-09-14T06:47:05.016Z,32.23
2022-09-14T06:49:32.111Z,32.47
2022-09-14T06:52:00.795Z,31.50
2022-09-14T06:54:27.805Z,28.70
2022-09-14T06:56:55.063Z,27.97
2022-09-14T06:59:22.347Z,29.27
2022-09-14T07:01:51.976Z,27.43
2022-09-14T07:04:18.951Z,25.63
2022-09-14T07:06:48.196Z,26.73
2022-09-14T07:09:16.464Z,30.90
2022-09-14T07:11:43.458Z,22.47
2022-09-14T07:14:14.869Z,24.90
2022-09-14T07:16:42.054Z,28.70
2022-09-14T07:19:14.042Z,26.60
2022-09-14T07:21:42.088Z,25.40
2022-09-14T07:24:10.564Z,26.47
2022-09-14T07:26:39.841Z,27.07
2022-09-14T07:29:13.556Z,27.77
2022-09-14T07:31:52.426Z,25.43
2022-09-14T07:34:23.930Z,27.23
2022-09-14T07:36:50.845Z,24.00
2022-09-14T07:39:18.314Z,26.43
2022-09-14T07:41:45.664Z,24.47
2022-09-14T07:44:17.346Z,25.33
2022-09-14T07:46:46.150Z,22.50
2022-09-14T07:49:13.859Z,20.73
2022-09-14T07:51:42.267Z,21.03
2022-09-14T07:54:14.194Z,19.07
2022-09-14T07:56:42.373Z,19.13
2022-09-14T08:02:01.091Z,17.40
2022-09-14T08:04:28.098Z,16.23
2022-09-14T08:06:55.005Z,17.73
2022-09-14T08:09:22.650Z,14.77
2022-09-14T08:11:49.644Z,15.57
2022-09-14T08:14:16.553Z,15.30
2022-09-14T08:16:43.692Z,13.40
2022-09-14T08:19:16.920Z,18.27
2022-09-14T08:21:47.227Z,13.07
2022-09-14T08:24:19.665Z,14.10
2022-09-14T08:26:49.190Z,13.30
2022-09-14T08:29:18.208Z,10.40
2022-09-14T08:31:57.134Z,10.40
2022-09-14T08:34:24.729Z,12.23
2022-09-14T08:36:51.751Z,11.83
2022-09-14T08:39:19.109Z,19.10
2022-09-14T08:41:51.646Z,11.17
2022-09-14T08:44:26.282Z,11.23
2022-09-14T08:47:05.875Z,16.50
2022-09-14T08:49:36.102Z,14.13
2022-09-14T08:52:03.688Z,12.27
2022-09-14T08:54:33.226Z,14.97
2022-09-14T08:57:12.136Z,10.47
2022-09-14T08:59:58.382Z,11.53
2022-09-14T09:02:28.021Z,10.77
2022-09-14T09:05:07.830Z,9.50
2022-09-14T09:08:06.820Z,13.77
2022-09-14T09:10:35.333Z,11.90
2022-09-14T09:13:06.477Z,14.03
2022-09-14T09:15:42.250Z,18.33
2022-09-14T09:18:18.875Z,13.37
2022-09-14T09:20:52.370Z,11.30
2022-09-14T09:23:22.285Z,10.53
2022-09-14T09:25:56.827Z,10.83
2022-09-14T09:28:26.274Z,8.43
2022-09-14T09:30:55.190Z,10.40
2022-09-14T09:33:24.151Z,8.47
2022-09-14T09:35:53.373Z,7.80
2022-09-14T09:38:25.428Z,9.60
2022-09-14T09:44:12.317Z,11.40
2022-09-14T09:46:50.416Z,11.90
2022-09-14T09:49:26.921Z,7.80
2022-09-14T09:51:55.518Z,10.53
2022-09-14T09:54:32.547Z,12.50
2022-09-14T09:57:06.590Z,8.57
2022-09-14T09:59:46.884Z,14.40
2022-09-14T10:02:33.051Z,8.67
2022-09-14T10:05:18.576Z,10.23
2022-09-14T10:07:48.682Z,8.53
2022-09-14T10:10:17.798Z,12.70
2022-09-14T10:12:50.887Z,10.43
2022-09-14T10:15:20.736Z,9.83
2022-09-14T10:18:30.329Z,10.43
2022-09-14T10:21:23.764Z,11.50
2022-09-14T10:24:06.926Z,8.90
2022-09-14T10:26:36.257Z,12.77
2022-09-14T10:29:44.722Z,6.47
2022-09-14T10:32:23.455Z,4.40
2022-09-14T10:34:53.074Z,7.63
2022-09-14T10:37:37.647Z,6.07
2022-09-14T10:40:19.767Z,5.63
2022-09-14T10:43:02.959Z,3.93
2022-09-14T10:45:40.949Z,5.93
2022-09-14T10:48:14.981Z,4.73
2022-09-14T10:50:51.081Z,6.50
2022-09-14T10:53:39.057Z,16.70
2022-09-14T11:16:14.293Z,3.63
2022-09-14T11:18:56.176Z,3.57
2022-09-14T11:21:34.750Z,3.30
2022-09-14T11:24:40.263Z,3.33
2022-09-14T11:27:32.304Z,2.50
2022-09-14T11:30:23.260Z,9.70
2022-09-14T11:33:01.633Z,8.07
2022-09-14T11:35:38.897Z,3.07
2022-09-14T11:38:16.829Z,4.27
2022-09-14T11:41:08.988Z,5.13
2022-09-14T11:44:13.476Z,3.87
2022-09-14T11:46:46.806Z,4.17
2022-09-14T11:49:30.408Z,5.27
2022-09-14T11:52:13.748Z,3.03
2022-09-14T11:54:46.696Z,3.30
2022-09-14T11:57:39.724Z,5.53
2022-09-14T12:00:50.970Z,2.97
2022-09-14T12:04:07.372Z,7.13
2022-09-14T12:06:34.358Z,6.87
2022-09-14T12:09:25.126Z,5.07
2022-09-14T12:11:53.904Z,5.00
2022-09-14T12:14:30.300Z,5.80
2022-09-14T12:17:28.644Z,6.57
2022-09-14T12:19:59.337Z,4.13
2022-09-14T12:22:37.582Z,3.53
2022-09-14T12:25:10.439Z,3.13
2022-09-14T12:27:39.468Z,2.80
2022-09-14T12:30:41.074Z,3.73
2022-09-14T12:33:31.902Z,3.40
2022-09-14T12:36:03.257Z,5.27
2022-09-14T12:38:43.828Z,4.80
2022-09-14T12:41:10.921Z,3.70
2022-09-14T12:43:38.070Z,6.03
2022-09-14T12:46:20.095Z,3.87
2022-09-14T12:48:55.561Z,8.47
2022-09-14T12:51:29.231Z,4.20
2022-09-14T12:54:01.481Z,3.37
2022-09-14T12:56:48.168Z,3.27
2022-09-14T13:00:06.399Z,4.60
2022-09-14T13:02:57.152Z,6.03
2022-09-14T13:05:28.352Z,4.20
2022-09-14T13:07:56.607Z,6.17
2022-09-14T13:10:35.789Z,5.30
2022-09-14T13:13:18.810Z,4.00
2022-09-14T13:16:18.903Z,4.67
2022-09-14T13:18:46.413Z,3.27
2022-09-14T13:21:21.049Z,5.33
2022-09-14T13:23:48.819Z,8.00
2022-09-14T13:26:34.229Z,3.20
2022-09-14T13:29:02.475Z,3.37
2022-09-14T13:31:36.872Z,5.37
2022-09-14T13:34:13.954Z,4.77
2022-09-14T13:36:43.486Z,4.87
2022-09-14T13:39:24.779Z,3.90
2022-09-14T13:41:52.622Z,3.20
2022-09-14T13:44:34.729Z,4.80
2022-09-14T13:47:05.865Z,3.67
2022-09-14T13:49:35.565Z,3.93
2022-09-14T13:52:33.979Z,2.90
2022-09-14T13:55:22.972Z,5.93
2022-09-14T13:58:21.231Z,4.13
2022-09-14T14:00:55.868Z,7.40
2022-09-14T14:03:38.485Z,6.40
2022-09-14T14:06:22.985Z,6.40
2022-09-14T14:09:08.503Z,4.07
2022-09-14T14:11:41.892Z,6.57
2022-09-14T14:14:28.839Z,4.40
2022-09-14T14:17:13.401Z,6.90
2022-09-14T14:19:40.684Z,10.07
2022-09-14T14:22:29.741Z,8.27
2022-09-14T14:25:14.502Z,6.27
2022-09-14T14:27:48.214Z,4.83
2022-09-14T14:30:25.808Z,8.27
2022-09-14T14:33:14.041Z,5.40
2022-09-14T14:36:08.181Z,3.87
2022-09-14T14:39:29.906Z,5.13
2022-09-14T14:42:51.535Z,5.27
2022-09-14T14:46:18.411Z,7.60
2022-09-14T14:49:03.222Z,3.60
2022-09-14T14:52:05.157Z,5.13
2022-09-14T14:55:28.205Z,3.47
2022-09-14T14:58:36.410Z,2.40
2022-09-14T15:01:18.327Z,8.73
2022-09-14T15:05:03.529Z,3.60
2022-09-14T15:08:25.163Z,4.83
2022-09-14T15:11:38.258Z,3.83
2022-09-14T15:14:26.091Z,3.77
2022-09-14T15:17:48.646Z,5.00
2022-09-14T15:21:10.341Z,3.83
2022-09-14T15:24:44.468Z,3.77
2022-09-14T15:27:26.306Z,3.90
2022-09-14T15:30:48.155Z,8.30
2022-09-14T15:34:09.797Z,3.93
2022-09-14T15:37:12.697Z,6.93
2022-09-14T15:40:01.617Z,2.83
2022-09-14T15:46:52.681Z,5.03
2022-09-14T15:49:54.423Z,4.63
2022-09-14T15:52:37.587Z,5.73
2022-09-14T15:55:06.781Z,6.33
2022-09-14T15:57:33.750Z,4.77
2022-09-14T16:00:14.573Z,5.37
2022-09-14T16:02:56.431Z,3.20
2022-09-14T16:05:41.273Z,4.57
2022-09-14T16:08:23.053Z,2.73
2022-09-14T16:11:06.150Z,3.23
2022-09-14T16:13:49.809Z,4.73
2022-09-14T16:16:32.696Z,4.17
2022-09-14T16:19:40.569Z,5.77
2022-09-14T16:22:22.451Z,5.57
2022-09-14T16:25:04.526Z,3.50
2022-09-14T16:27:46.406Z,5.13
2022-09-14T16:30:31.478Z,4.73
2022-09-14T16:33:13.240Z,6.20
2022-09-14T16:36:31.337Z,5.80
2022-09-14T16:39:49.219Z,3.77
2022-09-14T16:42:31.132Z,2.70
2022-09-14T16:45:13.054Z,8.13
2022-09-14T16:47:54.829Z,8.73
2022-09-14T16:50:36.605Z,4.93
2022-09-14T16:53:18.614Z,3.60
2022-09-14T16:56:09.789Z,7.33
2022-09-14T16:58:53.654Z,3.57
2022-09-14T17:01:37.882Z,7.30
2022-09-14T17:04:21.988Z,3.93
2022-09-14T17:07:03.766Z,6.23
2022-09-14T17:09:45.941Z,5.90
2022-09-14T17:12:31.234Z,5.83
2022-09-14T17:15:14.110Z,4.13
2022-09-14T17:17:55.896Z,7.30
2022-09-14T17:20:37.687Z,6.67
2022-09-14T17:23:19.465Z,6.83
2022-09-14T17:26:04.141Z,8.17
2022-09-14T17:28:49.277Z,7.20
2022-09-14T17:31:34.851Z,6.20
2022-09-14T17:34:17.812Z,6.43
2022-09-14T17:36:59.540Z,7.93
2022-09-14T17:39:41.293Z,8.23
2022-09-14T17:42:23.092Z,6.13
2022-09-14T17:45:06.540Z,7.70
2022-09-14T17:47:48.342Z,5.50
2022-09-14T17:50:30.193Z,6.50
2022-09-14T17:53:12.001Z,6.37
2022-09-14T17:56:02.116Z,5.27
2022-09-14T17:58:44.617Z,10.63
2022-09-14T18:01:27.262Z,8.87
2022-09-14T18:04:12.000Z,9.90
2022-09-14T18:06:53.858Z,9.80
2022-09-14T18:09:35.799Z,5.07
2022-09-14T18:12:19.818Z,7.10
2022-09-14T18:15:01.784Z,8.87
2022-09-14T18:17:45.423Z,6.73
2022-09-14T18:20:27.216Z,7.83
2022-09-14T18:23:08.994Z,6.93
2022-09-14T18:25:52.333Z,8.03
2022-09-14T18:28:39.977Z,22.20
2022-09-14T18:31:22.521Z,7.57
2022-09-14T18:34:04.410Z,9.27
2022-09-14T18:36:46.217Z,8.90
2022-09-14T18:39:28.030Z,13.33
2022-09-14T18:42:09.757Z,13.13
2022-09-14T18:44:55.226Z,13.23
2022-09-14T18:47:37.017Z,12.63
2022-09-14T18:50:19.578Z,16.77
2022-09-14T18:53:01.442Z,10.40
2022-09-14T18:55:43.243Z,17.73
2022-09-14T18:58:24.965Z,12.30
2022-09-14T19:01:08.057Z,14.13
2022-09-14T19:03:53.846Z,12.77
2022-09-14T19:06:38.154Z,12.77
2022-09-14T19:09:19.946Z,9.43
2022-09-14T19:12:02.302Z,7.90
2022-09-14T19:14:44.038Z,13.50
2022-09-14T19:17:26.361Z,10.73
2022-09-14T19:20:09.093Z,12.70
2022-09-14T19:22:53.693Z,9.17
2022-09-14T19:25:39.806Z,11.50
2022-09-14T19:28:21.615Z,11.67
2022-09-14T19:31:08.442Z,16.00
2022-09-14T19:33:50.733Z,19.63
2022-09-14T19:36:34.822Z,21.73
2022-09-14T19:39:16.695Z,16.33
2022-09-14T19:41:58.617Z,22.10
2022-09-14T19:44:40.395Z,17.07
2022-09-14T19:47:22.164Z,17.63
2022-09-14T19:50:04.887Z,14.83
2022-09-14T19:52:46.666Z,18.80
2022-09-14T19:55:28.398Z,12.33
2022-09-14T19:58:10.149Z,11.10
2022-09-14T20:00:59.793Z,11.83
2022-09-14T20:03:43.190Z,12.23
2022-09-14T20:06:31.840Z,13.33
2022-09-14T20:09:17.617Z,12.07
2022-09-14T20:11:59.897Z,14.03
2022-09-14T20:14:41.627Z,13.60
2022-09-14T20:17:23.438Z,17.23
2022-09-14T20:20:05.890Z,11.60
2022-09-14T20:22:47.983Z,12.13
2022-09-14T20:25:30.226Z,18.57
2022-09-14T20:28:11.981Z,13.43
2022-09-14T20:30:58.999Z,11.60
2022-09-14T20:33:40.844Z,11.67
2022-09-14T20:36:25.171Z,10.70
2022-09-14T20:39:07.023Z,9.93
2022-09-14T20:41:49.491Z,11.57
2022-09-14T20:44:31.262Z,13.60
2022-09-14T20:47:13.337Z,12.27
2022-09-14T20:49:55.673Z,17.83
2022-09-14T20:52:37.429Z,15.53
2022-09-14T20:55:19.268Z,11.53
2022-09-14T20:58:01.005Z,15.20
2022-09-14T21:00:42.861Z,15.33
2022-09-14T21:03:24.626Z,15.30
2022-09-14T21:06:07.771Z,15.47
2022-09-14T21:08:49.782Z,12.93
2022-09-14T21:11:31.899Z,10.70
2022-09-14T21:14:15.533Z,19.13
2022-09-14T21:16:58.522Z,13.37
2022-09-14T21:19:40.277Z,13.53
2022-09-14T21:22:22.109Z,15.03
2022-09-14T21:25:04.165Z,14.03
2022-09-14T21:27:45.949Z,14.10
2022-09-14T21:30:27.933Z,14.00
2022-09-14T21:33:09.694Z,14.00
2022-09-14T21:35:51.416Z,18.77
2022-09-14T21:38:33.570Z,12.73
2022-09-14T21:41:15.493Z,12.07
2022-09-14T21:43:57.844Z,15.00
2022-09-14T21:46:39.822Z,14.20
2022-09-14T21:49:21.911Z,12.67
2022-09-14T21:52:04.043Z,12.23
2022-09-14T21:54:45.808Z,15.60
2022-09-14T21:57:27.571Z,14.13
2022-09-14T22:00:10.893Z,14.93
2022-09-14T22:02:52.656Z,14.43
2022-09-14T22:05:34.891Z,15.03
2022-09-14T22:08:16.649Z,12.90
2022-09-14T22:11:07.291Z,13.87
2022-09-14T22:13:54.374Z,15.17
2022-09-14T22:16:37.848Z,13.43
2022-09-14T22:19:24.609Z,13.30
2022-09-14T22:22:06.361Z,12.30
2022-09-14T22:24:48.082Z,11.30
2022-09-14T22:27:29.927Z,11.23
2022-09-14T22:30:12.172Z,10.87
2022-09-14T22:32:53.932Z,12.10
2022-09-14T22:35:35.647Z,9.00
2022-09-14T22:38:17.411Z,14.77
2022-09-14T22:41:00.905Z,10.47
2022-09-14T22:43:43.214Z,11.67
2022-09-14T22:46:25.557Z,13.20
2022-09-14T22:49:07.459Z,11.70
2022-09-14T22:51:49.206Z,11.97
2022-09-14T22:54:31.477Z,9.83
2022-09-14T22:57:13.189Z,16.17
2022-09-14T22:59:54.959Z,10.13
2022-09-14T23:02:36.789Z,11.23
2022-09-14T23:05:19.754Z,11.50
2022-09-14T23:08:02.388Z,7.70
2022-09-14T23:10:44.479Z,13.03
2022-09-14T23:13:26.211Z,8.40
2022-09-14T23:16:12.945Z,9.33
2022-09-14T23:18:57.477Z,11.90
2022-09-14T23:21:39.279Z,10.07
2022-09-14T23:24:21.216Z,13.40
2022-09-14T23:27:03.058Z,10.40
2022-09-14T23:29:44.820Z,15.20
2022-09-14T23:32:26.615Z,11.17
2022-09-14T23:35:08.841Z,11.87
2022-09-14T23:37:50.914Z,11.97
2022-09-14T23:40:32.695Z,11.63
2022-09-14T23:43:14.547Z,11.97
2022-09-14T23:45:56.326Z,12.03
2022-09-14T23:48:38.416Z,10.63
2022-09-14T23:51:20.481Z,12.07
2022-09-14T23:54:02.236Z,13.23
2022-09-14T23:56:44.001Z,14.50
2022-09-14T23:59:25.854Z,14.50
